createdAt,value
2022-11-24T00:02:23.220Z,267.33
2022-11-24T00:04:47.038Z,246.43
2022-11-24T00:07:10.684Z,293.33
2022-11-24T00:09:34.332Z,324.40
2022-11-24T00:11:57.950Z,295.87
2022-11-24T00:14:21.580Z,337.63
2022-11-24T00:16:46.529Z,230.10
2022-11-24T00:19:15.761Z,277.33
2022-11-24T00:21:42.038Z,284.00
2022-11-24T00:24:06.427Z,326.40
2022-11-24T00:26:32.130Z,315.67
2022-11-24T00:29:02.230Z,287.03
2022-11-24T00:31:28.135Z,280.63
2022-11-24T00:33:54.771Z,303.43
2022-11-24T00:36:20.046Z,237.80
2022-11-24T00:38:43.805Z,264.90
2022-11-24T00:41:07.738Z,282.27
2022-11-24T00:43:31.299Z,302.97
2022-11-24T00:45:55.083Z,311.03
2022-11-24T00:48:18.750Z,282.00
2022-11-24T00:50:43.807Z,333.20
2022-11-24T00:53:07.438Z,279.23
2022-11-24T00:55:31.123Z,272.43
2022-11-24T00:57:54.680Z,297.90
2022-11-24T01:00:19.726Z,230.03
2022-11-24T01:02:43.315Z,259.13
2022-11-24T01:05:07.873Z,250.43
2022-11-24T01:07:32.856Z,305.93
2022-11-24T01:09:56.633Z,310.23
2022-11-24T01:12:20.158Z,354.80
2022-11-24T01:14:43.878Z,328.63
2022-11-24T01:17:07.422Z,331.37
2022-11-24T01:19:31.009Z,310.43
2022-11-24T01:21:54.656Z,324.30
2022-11-24T01:24:19.975Z,320.83
2022-11-24T01:26:43.670Z,397.50
2022-11-24T01:29:07.426Z,326.13
2022-11-24T01:31:30.966Z,324.50
2022-11-24T01:33:55.273Z,348.20
2022-11-24T01:36:19.069Z,383.10
2022-11-24T01:38:42.801Z,322.07
2022-11-24T01:41:11.334Z,313.40
2022-11-24T01:43:35.595Z,329.83
2022-11-24T01:46:03.838Z,348.37
2022-11-24T01:48:32.542Z,263.00
2022-11-24T01:51:03.615Z,330.90
2022-11-24T01:53:27.554Z,281.23
2022-11-24T01:55:53.038Z,335.23
2022-11-24T01:58:23.574Z,287.60
2022-11-24T02:00:48.026Z,316.50
2022-11-24T02:03:13.255Z,257.80
2022-11-24T02:05:45.036Z,233.47
2022-11-24T02:08:17.990Z,251.30
2022-11-24T02:10:41.580Z,251.90
2022-11-24T02:13:06.031Z,240.63
2022-11-24T02:15:31.452Z,225.80
2022-11-24T02:17:55.102Z,225.00
2022-11-24T02:20:19.590Z,211.20
2022-11-24T02:22:54.242Z,250.47
2022-11-24T02:25:31.336Z,261.83
2022-11-24T02:27:58.430Z,278.03
2022-11-24T02:30:22.307Z,242.40
2022-11-24T02:32:46.031Z,269.93
2022-11-24T02:35:11.918Z,258.93
2022-11-24T02:37:35.542Z,224.63
2022-11-24T02:39:59.073Z,250.03
2022-11-24T02:42:23.199Z,261.30
2022-11-24T02:44:54.402Z,270.43
2022-11-24T02:47:18.377Z,286.73
2022-11-24T02:49:41.980Z,270.57
2022-11-24T02:52:06.310Z,260.83
2022-11-24T02:54:30.050Z,291.53
2022-11-24T02:56:54.195Z,291.50
2022-11-24T02:59:17.759Z,229.37
2022-11-24T03:01:42.764Z,240.57
2022-11-24T03:04:06.523Z,217.03
2022-11-24T03:06:30.185Z,194.00
2022-11-24T03:08:53.736Z,261.53
2022-11-24T03:11:17.348Z,267.47
2022-11-24T03:13:40.926Z,234.23
2022-11-24T03:16:04.628Z,213.77
2022-11-24T03:18:29.611Z,253.37
2022-11-24T03:20:53.206Z,244.73
2022-11-24T03:23:16.772Z,234.00
2022-11-24T03:25:40.567Z,264.97
2022-11-24T03:28:04.278Z,304.77
2022-11-24T03:30:28.231Z,254.80
2022-11-24T03:32:53.547Z,275.37
2022-11-24T03:35:18.670Z,216.40
2022-11-24T03:37:42.330Z,261.00
2022-11-24T03:40:07.454Z,269.57
2022-11-24T03:42:31.026Z,225.60
2022-11-24T03:44:54.622Z,266.77
2022-11-24T03:47:18.222Z,237.33
2022-11-24T03:49:42.388Z,239.17
2022-11-24T03:52:08.358Z,240.80
2022-11-24T03:54:32.341Z,255.23
2022-11-24T03:56:56.157Z,282.87
2022-11-24T03:59:19.750Z,229.23
2022-11-24T04:01:43.382Z,206.37
2022-11-24T04:04:07.276Z,250.13
2022-11-24T04:06:30.857Z,215.27
2022-11-24T04:08:55.834Z,235.80
2022-11-24T04:11:33.218Z,247.03
2022-11-24T04:13:56.814Z,200.90
2022-11-24T04:16:20.389Z,244.93
2022-11-24T04:18:44.100Z,278.77
2022-11-24T04:21:07.764Z,280.33
2022-11-24T04:23:31.352Z,219.27
2022-11-24T04:25:56.243Z,223.10
2022-11-24T04:28:19.870Z,254.83
2022-11-24T04:30:45.064Z,264.00
2022-11-24T04:33:08.924Z,271.47
2022-11-24T04:35:32.499Z,252.80
2022-11-24T04:37:56.139Z,219.07
2022-11-24T04:40:20.443Z,306.27
2022-11-24T04:42:45.463Z,325.73
2022-11-24T04:45:10.057Z,311.40
2022-11-24T04:47:34.159Z,206.00
2022-11-24T04:49:57.748Z,283.93
2022-11-24T04:52:23.843Z,307.57
2022-11-24T04:54:47.635Z,326.20
2022-11-24T04:57:17.523Z,225.57
2022-11-24T04:59:42.495Z,235.97
2022-11-24T05:02:06.136Z,196.93
2022-11-24T05:04:29.992Z,260.90
2022-11-24T05:06:53.659Z,251.50
2022-11-24T05:09:18.742Z,235.30
2022-11-24T05:11:41.292Z,272.97
2022-11-24T05:14:04.866Z,214.73
2022-11-24T05:16:29.881Z,274.00
2022-11-24T05:18:53.445Z,270.93
2022-11-24T05:21:17.088Z,292.73
2022-11-24T05:23:40.642Z,331.40
2022-11-24T05:26:05.129Z,262.70
2022-11-24T05:28:29.132Z,293.07
2022-11-24T05:30:52.670Z,248.63
2022-11-24T05:33:19.264Z,241.53
2022-11-24T05:35:42.929Z,323.83
2022-11-24T05:38:06.599Z,209.70
2022-11-24T05:40:30.361Z,245.40
2022-11-24T05:42:53.888Z,285.47
2022-11-24T05:45:20.447Z,215.17
2022-11-24T05:47:44.361Z,234.60
2022-11-24T05:50:11.454Z,246.27
2022-11-24T05:52:35.188Z,256.63
2022-11-24T05:54:58.763Z,219.73
2022-11-24T05:57:22.297Z,262.77
2022-11-24T05:59:46.198Z,230.10
2022-11-24T06:02:10.321Z,186.83
2022-11-24T06:04:34.379Z,223.77
2022-11-24T06:06:59.546Z,211.23
2022-11-24T06:09:23.115Z,188.80
2022-11-24T06:11:48.291Z,157.93
2022-11-24T06:14:12.059Z,200.17
2022-11-24T06:16:35.703Z,227.63
2022-11-24T06:18:59.379Z,214.67
2022-11-24T06:21:22.910Z,222.70
2022-11-24T06:23:49.329Z,206.23
2022-11-24T06:26:12.902Z,177.57
2022-11-24T06:28:36.819Z,181.03
2022-11-24T06:31:03.781Z,170.30
2022-11-24T06:33:28.584Z,184.20
2022-11-24T06:35:52.150Z,187.97
2022-11-24T06:38:20.118Z,194.93
2022-11-24T06:40:49.093Z,213.37
2022-11-24T06:43:12.587Z,210.83
2022-11-24T06:45:36.261Z,206.57
2022-11-24T06:47:59.804Z,184.17
2022-11-24T06:50:23.648Z,214.63
2022-11-24T06:52:47.210Z,207.83
2022-11-24T06:55:11.131Z,141.80
2022-11-24T06:57:36.267Z,176.93
2022-11-24T07:00:00.074Z,182.63
2022-11-24T07:02:23.620Z,188.27
2022-11-24T07:04:47.211Z,191.73
2022-11-24T07:07:10.843Z,175.53
2022-11-24T07:09:34.488Z,191.50
2022-11-24T07:11:58.016Z,189.67
2022-11-24T07:14:23.250Z,166.73
2022-11-24T07:16:46.817Z,184.93
2022-11-24T07:19:11.439Z,202.77
2022-11-24T07:21:34.986Z,201.83
2022-11-24T07:23:59.656Z,177.07
2022-11-24T07:26:23.639Z,180.23
2022-11-24T07:28:47.386Z,188.80
2022-11-24T07:31:14.985Z,184.83
2022-11-24T07:33:38.909Z,179.07
2022-11-24T07:36:03.331Z,181.27
2022-11-24T07:38:26.932Z,186.13
2022-11-24T07:40:50.568Z,180.67
2022-11-24T07:43:19.845Z,165.07
2022-11-24T07:45:45.603Z,173.97
2022-11-24T07:48:11.877Z,161.07
2022-11-24T07:50:35.759Z,160.20
2022-11-24T07:53:03.458Z,163.53
2022-11-24T07:55:27.059Z,146.40
2022-11-24T07:57:50.604Z,153.70
2022-11-24T08:00:15.458Z,147.17
2022-11-24T08:02:39.230Z,137.03
2022-11-24T08:05:04.229Z,147.80
2022-11-24T08:07:27.860Z,136.80
2022-11-24T08:09:52.216Z,164.03
2022-11-24T08:12:17.531Z,147.63
2022-11-24T08:14:41.074Z,137.00
2022-11-24T08:17:04.752Z,150.97
2022-11-24T08:19:28.349Z,138.27
2022-11-24T08:21:53.320Z,136.87
2022-11-24T08:24:17.161Z,136.73
2022-11-24T08:26:40.696Z,149.33
2022-11-24T08:29:04.300Z,138.07
2022-11-24T08:31:33.529Z,141.80
2022-11-24T08:33:57.763Z,129.47
2022-11-24T08:36:21.523Z,130.10
2022-11-24T08:38:47.257Z,132.97
2022-11-24T08:41:12.705Z,138.17
2022-11-24T08:43:37.105Z,123.30
2022-11-24T08:46:02.318Z,119.37
2022-11-24T08:48:25.924Z,128.03
2022-11-24T08:50:49.481Z,129.17
2022-11-24T08:53:13.015Z,123.83
2022-11-24T08:55:37.973Z,136.03
2022-11-24T08:58:01.534Z,122.37
2022-11-24T09:00:25.212Z,135.43
2022-11-24T09:02:56.112Z,121.43
2022-11-24T09:05:50.132Z,129.90
2022-11-24T09:08:03.252Z,119.43
2022-11-24T09:10:26.730Z,106.53
2022-11-24T09:12:52.204Z,110.10
2022-11-24T09:15:17.116Z,107.73
2022-11-24T09:17:40.872Z,117.27
2022-11-24T09:20:05.164Z,109.43
2022-11-24T09:22:28.735Z,109.20
2022-11-24T09:24:52.223Z,108.23
2022-11-24T09:27:15.854Z,101.33
2022-11-24T09:29:40.742Z,103.10
2022-11-24T09:32:06.940Z,97.30
2022-11-24T09:34:30.842Z,97.80
2022-11-24T09:36:54.427Z,100.00
2022-11-24T09:39:18.035Z,97.80
2022-11-24T09:41:55.690Z,93.90
2022-11-24T09:45:03.049Z,92.73
2022-11-24T09:47:43.095Z,85.87
2022-11-24T09:50:11.900Z,89.13
2022-11-24T09:52:41.927Z,87.40
2022-11-24T09:55:19.693Z,82.63
2022-11-24T09:57:45.379Z,74.57
2022-11-24T10:00:14.965Z,73.03
2022-11-24T10:02:38.552Z,70.53
2022-11-24T10:05:02.150Z,68.55
2022-11-24T10:07:32.513Z,69.40
2022-11-24T10:10:05.759Z,67.63
2022-11-24T10:12:49.024Z,67.03
2022-11-24T10:15:35.036Z,62.50
2022-11-24T10:18:35.147Z,67.10
2022-11-24T10:21:14.843Z,69.03
2022-11-24T10:24:09.931Z,63.17
2022-11-24T10:26:39.168Z,63.53
2022-11-24T10:29:14.975Z,64.40
2022-11-24T10:31:43.078Z,75.07
2022-11-24T10:34:16.491Z,64.10
2022-11-24T10:36:49.364Z,70.53
2022-11-24T10:39:21.748Z,66.45
2022-11-24T10:41:52.675Z,78.55
2022-11-24T10:44:16.369Z,67.73
2022-11-24T10:46:41.958Z,70.20
2022-11-24T10:49:06.949Z,68.20
2022-11-24T10:51:45.609Z,65.10
2022-11-24T10:54:17.559Z,69.03
2022-11-24T10:56:41.972Z,97.07
2022-11-24T10:59:29.349Z,69.67
2022-11-24T11:01:55.646Z,64.10
2022-11-24T11:04:22.503Z,64.68
2022-11-24T11:06:46.153Z,63.78
2022-11-24T11:09:22.221Z,71.40
2022-11-24T11:11:48.299Z,64.10
2022-11-24T11:14:13.010Z,65.60
2022-11-24T11:16:39.569Z,66.47
2022-11-24T11:19:33.006Z,62.83
2022-11-24T11:22:00.540Z,61.30
2022-11-24T11:24:24.149Z,64.65
2022-11-24T11:26:47.705Z,61.83
2022-11-24T11:34:53.627Z,64.80
2022-11-24T11:37:18.155Z,72.97
2022-11-24T11:39:48.681Z,67.22
2022-11-24T11:42:59.945Z,73.63
2022-11-24T11:45:14.484Z,65.60
2022-11-24T11:47:46.305Z,64.85
2022-11-24T11:50:18.648Z,67.85
2022-11-24T11:53:07.450Z,66.43
2022-11-24T11:55:51.362Z,66.82
2022-11-24T11:58:43.883Z,59.38
2022-11-24T12:01:19.605Z,61.17
2022-11-24T12:03:58.925Z,65.25
2022-11-24T12:06:43.219Z,62.22
2022-11-24T12:09:21.512Z,61.55
2022-11-24T12:11:53.349Z,61.38
2022-11-24T12:14:32.111Z,61.72
2022-11-24T12:17:07.099Z,64.90
2022-11-24T12:19:46.724Z,60.50
2022-11-24T12:22:21.997Z,61.55
2022-11-24T12:24:54.462Z,67.95
2022-11-24T12:27:29.883Z,62.10
2022-11-24T12:30:11.105Z,58.72
2022-11-24T12:33:00.194Z,62.20
2022-11-24T12:35:31.389Z,64.93
2022-11-24T12:38:11.116Z,60.65
2022-11-24T12:41:06.478Z,61.40
2022-11-24T12:43:38.354Z,62.45
2022-11-24T12:46:16.864Z,58.50
2022-11-24T12:48:53.983Z,61.10
2022-11-24T12:51:20.479Z,64.32
2022-11-24T12:53:47.346Z,69.45
2022-11-24T12:56:15.942Z,66.82
2022-11-24T12:58:50.372Z,57.50
2022-11-24T13:01:26.277Z,62.75
2022-11-24T13:04:09.002Z,66.75
2022-11-24T13:06:49.038Z,61.72
2022-11-24T13:09:15.767Z,58.20
2022-11-24T13:11:45.437Z,59.13
2022-11-24T13:14:19.887Z,64.70
2022-11-24T13:19:39.841Z,62.00
2022-11-24T13:22:16.612Z,63.30
2022-11-24T13:24:42.376Z,62.97
2022-11-24T13:27:45.149Z,61.67
2022-11-24T13:30:54.874Z,63.33
2022-11-24T13:33:39.827Z,64.75
2022-11-24T13:36:35.599Z,65.22
2022-11-24T13:38:59.866Z,63.25
2022-11-24T13:42:10.007Z,61.22
2022-11-24T13:44:55.537Z,61.47
2022-11-24T13:47:41.781Z,64.43
2022-11-24T13:50:08.578Z,67.57
2022-11-24T13:52:46.170Z,67.05
2022-11-24T13:55:29.075Z,65.38
2022-11-24T13:57:57.963Z,68.28
2022-11-24T14:00:25.212Z,60.30
2022-11-24T14:02:49.277Z,67.50
2022-11-24T14:05:15.609Z,61.22
2022-11-24T14:07:42.117Z,60.35
2022-11-24T14:10:07.507Z,60.97
2022-11-24T14:12:33.807Z,59.67
2022-11-24T14:15:24.504Z,60.00
2022-11-24T14:17:48.098Z,61.55
2022-11-24T14:20:24.245Z,62.08
2022-11-24T14:22:47.895Z,60.38
2022-11-24T14:25:25.969Z,64.50
2022-11-24T14:27:49.610Z,59.22
2022-11-24T14:30:23.083Z,63.05
2022-11-24T14:32:56.267Z,56.25
2022-11-24T14:35:25.860Z,61.47
2022-11-24T14:37:49.429Z,59.85
2022-11-24T14:40:42.084Z,59.17
2022-11-24T14:43:06.049Z,59.45
2022-11-24T14:45:31.011Z,53.38
2022-11-24T14:47:55.677Z,60.33
2022-11-24T14:50:24.262Z,57.63
2022-11-24T14:52:55.488Z,60.17
2022-11-24T14:55:28.772Z,60.75
2022-11-24T14:57:52.408Z,61.70
2022-11-24T15:00:20.959Z,56.10
2022-11-24T15:02:49.700Z,66.18
2022-11-24T15:05:13.672Z,61.47
2022-11-24T15:07:39.779Z,61.03
2022-11-24T15:10:05.996Z,57.03
2022-11-24T15:12:34.348Z,57.90
2022-11-24T15:15:02.280Z,58.65
2022-11-24T15:17:29.175Z,63.75
2022-11-24T15:19:59.703Z,63.80
2022-11-24T15:22:40.728Z,62.20
2022-11-24T15:25:25.602Z,67.63
2022-11-24T15:27:49.222Z,60.10
2022-11-24T15:30:14.597Z,56.88
2022-11-24T15:32:38.159Z,68.45
2022-11-24T15:35:03.072Z,64.20
2022-11-24T15:37:30.050Z,65.18
2022-11-24T15:39:57.528Z,62.72
2022-11-24T15:42:21.102Z,58.35
2022-11-24T15:44:44.725Z,63.05
2022-11-24T15:47:09.249Z,63.03
2022-11-24T15:49:32.903Z,61.92
2022-11-24T15:51:57.889Z,66.35
2022-11-24T15:54:21.535Z,68.72
2022-11-24T15:56:45.139Z,57.60
2022-11-24T15:59:18.757Z,62.03
2022-11-24T16:01:46.297Z,60.20
2022-11-24T16:04:12.400Z,64.10
2022-11-24T16:06:36.102Z,65.97
2022-11-24T16:09:01.514Z,71.78
2022-11-24T16:11:25.311Z,79.82
2022-11-24T16:13:53.065Z,67.70
2022-11-24T16:16:17.527Z,69.53
2022-11-24T16:18:41.711Z,112.25
2022-11-24T16:21:05.399Z,98.47
2022-11-24T16:23:28.923Z,63.75
2022-11-24T16:25:54.273Z,69.47
2022-11-24T16:28:17.947Z,68.82
2022-11-24T16:30:41.557Z,73.13
2022-11-24T16:33:05.701Z,85.25
2022-11-24T16:35:29.345Z,79.88
2022-11-24T16:37:52.966Z,73.82
2022-11-24T16:40:18.209Z,83.82
2022-11-24T16:42:43.203Z,84.47
2022-11-24T16:45:08.065Z,93.85
2022-11-24T16:47:31.562Z,82.18
2022-11-24T16:49:55.105Z,84.47
2022-11-24T16:52:19.270Z,80.47
2022-11-24T16:54:42.970Z,91.20
2022-11-24T16:57:11.705Z,85.03
2022-11-24T16:59:40.044Z,88.68
2022-11-24T17:02:03.571Z,86.55
2022-11-24T17:04:27.363Z,85.22
2022-11-24T17:06:50.995Z,80.93
2022-11-24T17:09:14.632Z,83.30
2022-11-24T17:11:38.156Z,77.70
2022-11-24T17:14:03.025Z,87.47
2022-11-24T17:16:28.480Z,72.03
2022-11-24T17:18:52.991Z,79.22
2022-11-24T17:21:18.739Z,77.15
2022-11-24T17:23:42.402Z,76.43
2022-11-24T17:26:08.606Z,76.57
2022-11-24T17:28:32.310Z,75.55
2022-11-24T17:30:55.871Z,76.83
2022-11-24T17:33:20.787Z,72.90
2022-11-24T17:35:44.313Z,74.10
2022-11-24T17:38:07.853Z,76.78
2022-11-24T17:40:31.536Z,76.37
2022-11-24T17:42:55.164Z,81.00
2022-11-24T17:45:18.675Z,70.30
2022-11-24T17:47:42.379Z,75.85
2022-11-24T17:50:09.124Z,81.13
2022-11-24T17:52:32.658Z,82.33
2022-11-24T17:54:56.160Z,83.70
2022-11-24T17:57:19.751Z,83.13
2022-11-24T17:59:43.859Z,71.40
2022-11-24T18:02:07.868Z,77.35
2022-11-24T18:04:31.511Z,82.93
2022-11-24T18:06:56.491Z,79.30
2022-11-24T18:09:19.980Z,81.87
2022-11-24T18:11:43.741Z,85.63
2022-11-24T18:14:07.268Z,77.80
2022-11-24T18:16:32.416Z,83.03
2022-11-24T18:19:07.779Z,81.57
2022-11-24T18:21:32.182Z,82.65
2022-11-24T18:23:57.213Z,81.15
2022-11-24T18:26:21.228Z,81.03
2022-11-24T18:28:45.956Z,85.37
2022-11-24T18:31:13.099Z,78.00
2022-11-24T18:33:38.598Z,83.57
2022-11-24T18:36:05.078Z,80.33
2022-11-24T18:38:29.656Z,89.90
2022-11-24T18:41:00.525Z,80.87
2022-11-24T18:43:24.955Z,76.72
2022-11-24T18:45:48.491Z,77.63
2022-11-24T18:48:12.139Z,82.97
2022-11-24T18:50:36.372Z,86.10
2022-11-24T18:52:59.907Z,73.23
2022-11-24T18:55:23.438Z,80.93
2022-11-24T18:57:48.394Z,87.20
2022-11-24T19:00:14.090Z,83.43
2022-11-24T19:02:37.720Z,78.97
2022-11-24T19:05:01.440Z,70.23
2022-11-24T19:07:25.031Z,73.90
2022-11-24T19:09:48.672Z,75.67
2022-11-24T19:12:12.357Z,87.37
2022-11-24T19:14:37.425Z,72.80
2022-11-24T19:17:02.910Z,94.40
2022-11-24T19:19:26.537Z,90.23
2022-11-24T19:21:50.096Z,96.63
2022-11-24T19:24:14.231Z,86.00
2022-11-24T19:26:38.858Z,103.50
2022-11-24T19:29:02.345Z,84.73
2022-11-24T19:31:27.500Z,91.73
2022-11-24T19:33:52.886Z,73.30
2022-11-24T19:36:19.271Z,88.53
2022-11-24T19:38:43.845Z,98.27
2022-11-24T19:41:09.884Z,95.07
2022-11-24T19:43:34.268Z,91.33
2022-11-24T19:46:02.546Z,88.23
2022-11-24T19:48:27.512Z,103.07
2022-11-24T19:50:51.094Z,96.90
2022-11-24T19:53:14.615Z,88.30
2022-11-24T19:55:38.188Z,96.63
2022-11-24T19:58:01.660Z,107.00
2022-11-24T20:00:30.613Z,98.43
2022-11-24T20:02:55.476Z,94.47
2022-11-24T20:05:20.413Z,96.30
2022-11-24T20:07:44.017Z,93.43
2022-11-24T20:10:09.544Z,101.33
2022-11-24T20:12:34.535Z,108.97
2022-11-24T20:14:58.113Z,119.77
2022-11-24T20:17:21.742Z,99.47
2022-11-24T20:19:45.260Z,90.10
2022-11-24T20:22:10.229Z,104.43
2022-11-24T20:24:33.860Z,113.73
2022-11-24T20:27:00.162Z,101.70
2022-11-24T20:29:23.902Z,126.63
2022-11-24T20:31:50.637Z,109.93
2022-11-24T20:34:15.710Z,102.10
2022-11-24T20:36:41.448Z,97.37
2022-11-24T20:39:09.317Z,93.37
2022-11-24T20:41:35.649Z,101.70
2022-11-24T20:44:01.673Z,113.67
2022-11-24T20:46:28.437Z,131.53
2022-11-24T20:48:52.909Z,101.90
2022-11-24T20:51:21.452Z,113.60
2022-11-24T20:53:45.315Z,89.83
2022-11-24T20:56:13.079Z,92.77
2022-11-24T20:58:38.242Z,99.93
2022-11-24T21:01:06.230Z,92.63
2022-11-24T21:03:29.893Z,94.23
2022-11-24T21:05:56.692Z,114.17
2022-11-24T21:08:20.204Z,114.47
2022-11-24T21:10:43.757Z,98.30
2022-11-24T21:13:08.695Z,102.77
2022-11-24T21:15:32.241Z,106.00
2022-11-24T21:17:55.741Z,116.93
2022-11-24T21:20:19.369Z,114.23
2022-11-24T21:22:42.844Z,95.47
2022-11-24T21:25:07.345Z,104.07
2022-11-24T21:27:30.875Z,104.97
2022-11-24T21:29:55.865Z,97.03
2022-11-24T21:32:19.430Z,99.23
2022-11-24T21:34:43.034Z,104.00
2022-11-24T21:37:07.111Z,120.23
2022-11-24T21:39:30.754Z,140.00
2022-11-24T21:41:54.293Z,116.83
2022-11-24T21:44:18.015Z,98.43
2022-11-24T21:46:48.074Z,100.83
2022-11-24T21:49:14.704Z,113.23
2022-11-24T21:51:38.276Z,111.23
2022-11-24T21:54:01.865Z,105.10
2022-11-24T21:56:25.921Z,118.50
2022-11-24T21:58:51.929Z,112.97
2022-11-24T22:01:16.746Z,120.30
2022-11-24T22:03:41.793Z,112.53
2022-11-24T22:06:05.661Z,123.37
2022-11-24T22:08:31.122Z,131.93
2022-11-24T22:10:55.751Z,125.27
2022-11-24T22:13:19.533Z,125.70
2022-11-24T22:15:43.227Z,124.13
2022-11-24T22:18:06.978Z,137.70
2022-11-24T22:20:32.075Z,143.00
2022-11-24T22:22:55.659Z,130.93
2022-11-24T22:25:19.159Z,141.30
2022-11-24T22:27:42.937Z,137.57
2022-11-24T22:30:08.402Z,133.13
2022-11-24T22:32:31.954Z,130.87
2022-11-24T22:34:55.474Z,135.77
2022-11-24T22:37:20.486Z,137.33
2022-11-24T22:39:44.049Z,120.27
2022-11-24T22:42:07.667Z,141.53
2022-11-24T22:44:31.203Z,143.83
2022-11-24T22:46:54.743Z,157.50
2022-11-24T22:49:18.259Z,143.40
2022-11-24T22:51:41.822Z,152.03
2022-11-24T22:54:07.383Z,152.93
2022-11-24T22:56:32.421Z,153.73
2022-11-24T22:58:56.144Z,157.93
2022-11-24T23:01:22.298Z,159.23
2022-11-24T23:03:46.434Z,146.93
2022-11-24T23:06:13.776Z,142.23
2022-11-24T23:08:37.909Z,142.27
2022-11-24T23:11:05.309Z,152.57
2022-11-24T23:13:29.109Z,153.10
2022-11-24T23:15:52.750Z,145.07
2022-11-24T23:18:16.239Z,149.40
2022-11-24T23:20:39.843Z,146.77
2022-11-24T23:23:03.339Z,148.90
2022-11-24T23:25:26.985Z,160.97
2022-11-24T23:27:51.940Z,166.87
2022-11-24T23:30:15.870Z,149.53
2022-11-24T23:32:40.168Z,162.17
2022-11-24T23:35:03.731Z,161.63
2022-11-24T23:37:45.704Z,157.27
2022-11-24T23:40:11.380Z,154.10
2022-11-24T23:42:34.914Z,153.47
2022-11-24T23:44:59.892Z,141.77
2022-11-24T23:47:23.628Z,152.70
2022-11-24T23:49:47.185Z,148.97
2022-11-24T23:52:10.728Z,156.50
2022-11-24T23:54:34.571Z,149.50
2022-11-24T23:56:58.239Z,132.03
2022-11-24T23:59:22.848Z,166.70
